Historie AUP a zpráv METAR Praha-Ruzyně z 12:00 UTC

Datum: 22-04-2018 / Vyber datum:
LKPR 221200Z VRB04KT CAVOK 23/11 Q1016 NOSIG
Prostor Spodní hranice Horní hranice Od Do